sensor_id;sensor_type;location;lat;lon;timestamp;P1;durP1;ratioP1;P2;durP2;ratioP2
6209;SDS011;3138;52.550;13.148;2023-06-22T00:01:15;24.33;;;17.63;;
6209;SDS011;3138;52.550;13.148;2023-06-22T00:03:42;24.90;;;17.77;;
6209;SDS011;3138;52.550;13.148;2023-06-22T00:06:09;20.67;;;15.40;;
6209;SDS011;3138;52.550;13.148;2023-06-22T00:08:36;30.97;;;17.07;;
6209;SDS011;3138;52.550;13.148;2023-06-22T00:11:09;21.47;;;16.20;;
6209;SDS011;3138;52.550;13.148;2023-06-22T00:13:40;34.43;;;17.10;;
6209;SDS011;3138;52.550;13.148;2023-06-22T00:16:07;21.73;;;17.30;;
6209;SDS011;3138;52.550;13.148;2023-06-22T00:18:33;27.33;;;17.63;;
6209;SDS011;3138;52.550;13.148;2023-06-22T00:21:00;18.83;;;16.13;;
6209;SDS011;3138;52.550;13.148;2023-06-22T00:23:27;21.10;;;16.27;;
6209;SDS011;3138;52.550;13.148;2023-06-22T00:25:59;34.13;;;17.60;;
6209;SDS011;3138;52.550;13.148;2023-06-22T00:28:25;17.90;;;16.07;;
6209;SDS011;3138;52.550;13.148;2023-06-22T00:30:55;23.50;;;17.07;;
6209;SDS011;3138;52.550;13.148;2023-06-22T00:33:22;18.13;;;16.20;;
6209;SDS011;3138;52.550;13.148;2023-06-22T00:35:49;24.57;;;16.37;;
6209;SDS011;3138;52.550;13.148;2023-06-22T00:38:17;34.00;;;17.33;;
6209;SDS011;3138;52.550;13.148;2023-06-22T00:40:44;26.03;;;16.47;;
6209;SDS011;3138;52.550;13.148;2023-06-22T00:43:11;22.20;;;16.93;;
6209;SDS011;3138;52.550;13.148;2023-06-22T00:45:38;24.00;;;16.50;;
6209;SDS011;3138;52.550;13.148;2023-06-22T00:48:06;21.47;;;16.80;;
6209;SDS011;3138;52.550;13.148;2023-06-22T00:50:34;25.93;;;15.67;;
6209;SDS011;3138;52.550;13.148;2023-06-22T00:53:03;21.93;;;17.37;;
6209;SDS011;3138;52.550;13.148;2023-06-22T00:55:33;20.83;;;17.63;;
6209;SDS011;3138;52.550;13.148;2023-06-22T00:58:02;22.17;;;17.77;;
6209;SDS011;3138;52.550;13.148;2023-06-22T01:00:33;19.73;;;16.60;;
6209;SDS011;3138;52.550;13.148;2023-06-22T01:03:01;24.93;;;16.83;;
6209;SDS011;3138;52.550;13.148;2023-06-22T01:05:29;23.80;;;16.80;;
6209;SDS011;3138;52.550;13.148;2023-06-22T01:08:04;24.70;;;16.77;;
6209;SDS011;3138;52.550;13.148;2023-06-22T01:10:37;20.87;;;15.70;;
6209;SDS011;3138;52.550;13.148;2023-06-22T01:13:07;23.03;;;17.17;;
6209;SDS011;3138;52.550;13.148;2023-06-22T01:15:43;22.50;;;17.70;;
6209;SDS011;3138;52.550;13.148;2023-06-22T01:18:14;20.80;;;16.00;;
6209;SDS011;3138;52.550;13.148;2023-06-22T01:20:44;21.70;;;17.63;;
6209;SDS011;3138;52.550;13.148;2023-06-22T01:23:18;20.53;;;17.00;;
6209;SDS011;3138;52.550;13.148;2023-06-22T01:25:54;21.23;;;17.00;;
6209;SDS011;3138;52.550;13.148;2023-06-22T01:28:40;27.43;;;17.60;;
6209;SDS011;3138;52.550;13.148;2023-06-22T01:31:11;23.20;;;16.00;;
6209;SDS011;3138;52.550;13.148;2023-06-22T01:33:41;21.40;;;16.43;;
6209;SDS011;3138;52.550;13.148;2023-06-22T01:36:09;19.87;;;16.70;;
6209;SDS011;3138;52.550;13.148;2023-06-22T01:38:37;22.00;;;16.80;;
6209;SDS011;3138;52.550;13.148;2023-06-22T01:41:04;18.80;;;15.73;;
6209;SDS011;3138;52.550;13.148;2023-06-22T01:43:31;19.40;;;16.17;;
6209;SDS011;3138;52.550;13.148;2023-06-22T01:46:01;25.20;;;16.00;;
6209;SDS011;3138;52.550;13.148;2023-06-22T01:48:29;18.20;;;14.80;;
6209;SDS011;3138;52.550;13.148;2023-06-22T01:50:57;26.23;;;15.23;;
6209;SDS011;3138;52.550;13.148;2023-06-22T01:53:24;24.23;;;16.97;;
6209;SDS011;3138;52.550;13.148;2023-06-22T01:55:51;30.53;;;16.40;;
6209;SDS011;3138;52.550;13.148;2023-06-22T01:58:18;36.23;;;17.90;;
6209;SDS011;3138;52.550;13.148;2023-06-22T02:00:48;22.23;;;17.17;;
6209;SDS011;3138;52.550;13.148;2023-06-22T02:03:22;21.60;;;17.23;;
6209;SDS011;3138;52.550;13.148;2023-06-22T02:05:55;20.17;;;18.07;;
6209;SDS011;3138;52.550;13.148;2023-06-22T02:08:28;22.53;;;17.30;;
6209;SDS011;3138;52.550;13.148;2023-06-22T02:10:58;27.10;;;18.77;;
6209;SDS011;3138;52.550;13.148;2023-06-22T02:13:26;23.30;;;16.43;;
6209;SDS011;3138;52.550;13.148;2023-06-22T02:15:54;16.70;;;15.00;;
6209;SDS011;3138;52.550;13.148;2023-06-22T02:18:23;19.73;;;15.40;;
6209;SDS011;3138;52.550;13.148;2023-06-22T02:20:53;17.77;;;15.90;;
6209;SDS011;3138;52.550;13.148;2023-06-22T02:23:20;21.57;;;16.83;;
6209;SDS011;3138;52.550;13.148;2023-06-22T02:25:46;19.07;;;15.20;;
6209;SDS011;3138;52.550;13.148;2023-06-22T02:28:13;20.03;;;14.93;;
6209;SDS011;3138;52.550;13.148;2023-06-22T02:30:40;25.40;;;14.57;;
6209;SDS011;3138;52.550;13.148;2023-06-22T02:33:07;28.07;;;18.27;;
6209;SDS011;3138;52.550;13.148;2023-06-22T02:35:35;20.90;;;18.20;;
6209;SDS011;3138;52.550;13.148;2023-06-22T02:38:03;21.73;;;16.33;;
6209;SDS011;3138;52.550;13.148;2023-06-22T02:40:30;22.47;;;17.57;;
6209;SDS011;3138;52.550;13.148;2023-06-22T02:42:58;24.77;;;19.10;;
6209;SDS011;3138;52.550;13.148;2023-06-22T02:45:27;31.07;;;19.30;;
6209;SDS011;3138;52.550;13.148;2023-06-22T02:47:54;24.03;;;19.40;;
6209;SDS011;3138;52.550;13.148;2023-06-22T02:50:22;22.40;;;18.30;;
6209;SDS011;3138;52.550;13.148;2023-06-22T02:52:50;21.53;;;19.20;;
6209;SDS011;3138;52.550;13.148;2023-06-22T02:55:17;22.00;;;19.40;;
6209;SDS011;3138;52.550;13.148;2023-06-22T02:57:43;23.73;;;19.53;;
6209;SDS011;3138;52.550;13.148;2023-06-22T03:00:12;23.77;;;19.87;;
6209;SDS011;3138;52.550;13.148;2023-06-22T03:02:42;22.50;;;19.50;;
6209;SDS011;3138;52.550;13.148;2023-06-22T03:05:09;27.83;;;19.13;;
6209;SDS011;3138;52.550;13.148;2023-06-22T03:07:38;24.30;;;20.13;;
6209;SDS011;3138;52.550;13.148;2023-06-22T03:10:07;23.27;;;20.33;;
6209;SDS011;3138;52.550;13.148;2023-06-22T03:12:35;25.17;;;19.90;;
6209;SDS011;3138;52.550;13.148;2023-06-22T03:15:03;28.10;;;20.37;;
6209;SDS011;3138;52.550;13.148;2023-06-22T03:17:31;24.13;;;21.43;;
6209;SDS011;3138;52.550;13.148;2023-06-22T03:19:58;25.87;;;20.53;;
6209;SDS011;3138;52.550;13.148;2023-06-22T03:22:25;23.80;;;19.17;;
6209;SDS011;3138;52.550;13.148;2023-06-22T03:24:52;43.90;;;23.00;;
6209;SDS011;3138;52.550;13.148;2023-06-22T03:27:20;26.43;;;21.00;;
6209;SDS011;3138;52.550;13.148;2023-06-22T03:29:47;23.63;;;20.70;;
6209;SDS011;3138;52.550;13.148;2023-06-22T03:32:14;25.00;;;21.37;;
6209;SDS011;3138;52.550;13.148;2023-06-22T03:34:40;25.10;;;20.43;;
6209;SDS011;3138;52.550;13.148;2023-06-22T03:37:12;28.50;;;21.90;;
6209;SDS011;3138;52.550;13.148;2023-06-22T03:39:39;31.20;;;20.43;;
6209;SDS011;3138;52.550;13.148;2023-06-22T03:42:06;28.83;;;21.97;;
6209;SDS011;3138;52.550;13.148;2023-06-22T03:44:35;22.80;;;20.40;;
6209;SDS011;3138;52.550;13.148;2023-06-22T03:47:02;25.77;;;21.03;;
6209;SDS011;3138;52.550;13.148;2023-06-22T03:49:31;24.03;;;21.10;;
6209;SDS011;3138;52.550;13.148;2023-06-22T03:51:59;26.73;;;20.80;;
6209;SDS011;3138;52.550;13.148;2023-06-22T03:54:26;24.07;;;21.47;;
6209;SDS011;3138;52.550;13.148;2023-06-22T03:56:54;33.03;;;20.57;;
6209;SDS011;3138;52.550;13.148;2023-06-22T03:59:21;25.70;;;19.57;;
6209;SDS011;3138;52.550;13.148;2023-06-22T04:01:49;25.20;;;19.70;;
6209;SDS011;3138;52.550;13.148;2023-06-22T04:04:17;29.40;;;19.83;;
6209;SDS011;3138;52.550;13.148;2023-06-22T04:06:44;22.93;;;20.33;;
6209;SDS011;3138;52.550;13.148;2023-06-22T04:09:10;26.00;;;20.00;;
6209;SDS011;3138;52.550;13.148;2023-06-22T04:11:37;30.10;;;19.60;;
6209;SDS011;3138;52.550;13.148;2023-06-22T04:14:04;27.27;;;20.80;;
6209;SDS011;3138;52.550;13.148;2023-06-22T04:16:31;25.07;;;20.03;;
6209;SDS011;3138;52.550;13.148;2023-06-22T04:18:59;26.40;;;19.57;;
6209;SDS011;3138;52.550;13.148;2023-06-22T04:21:26;36.90;;;20.47;;
6209;SDS011;3138;52.550;13.148;2023-06-22T04:23:53;22.57;;;17.97;;
6209;SDS011;3138;52.550;13.148;2023-06-22T04:26:20;21.13;;;18.17;;
6209;SDS011;3138;52.550;13.148;2023-06-22T04:28:47;21.67;;;18.27;;
6209;SDS011;3138;52.550;13.148;2023-06-22T04:31:16;23.30;;;19.90;;
6209;SDS011;3138;52.550;13.148;2023-06-22T04:33:43;25.23;;;18.60;;
6209;SDS011;3138;52.550;13.148;2023-06-22T04:36:11;21.40;;;16.47;;
6209;SDS011;3138;52.550;13.148;2023-06-22T04:38:38;19.07;;;17.10;;
6209;SDS011;3138;52.550;13.148;2023-06-22T04:41:05;20.60;;;16.70;;
6209;SDS011;3138;52.550;13.148;2023-06-22T04:43:34;19.00;;;16.70;;
6209;SDS011;3138;52.550;13.148;2023-06-22T04:46:01;18.20;;;15.80;;
6209;SDS011;3138;52.550;13.148;2023-06-22T04:48:29;23.53;;;16.00;;
6209;SDS011;3138;52.550;13.148;2023-06-22T04:50:57;40.50;;;16.47;;
6209;SDS011;3138;52.550;13.148;2023-06-22T04:53:31;18.53;;;14.10;;
6209;SDS011;3138;52.550;13.148;2023-06-22T04:55:58;17.20;;;13.90;;
6209;SDS011;3138;52.550;13.148;2023-06-22T04:58:25;18.03;;;12.70;;
6209;SDS011;3138;52.550;13.148;2023-06-22T05:00:53;14.83;;;12.53;;
6209;SDS011;3138;52.550;13.148;2023-06-22T05:03:22;18.20;;;14.03;;
6209;SDS011;3138;52.550;13.148;2023-06-22T05:05:52;20.93;;;12.90;;
6209;SDS011;3138;52.550;13.148;2023-06-22T05:08:18;22.23;;;12.47;;
6209;SDS011;3138;52.550;13.148;2023-06-22T05:10:47;18.37;;;12.97;;
6209;SDS011;3138;52.550;13.148;2023-06-22T05:13:13;28.40;;;11.90;;
6209;SDS011;3138;52.550;13.148;2023-06-22T05:15:40;15.50;;;12.10;;
6209;SDS011;3138;52.550;13.148;2023-06-22T05:18:07;12.50;;;11.20;;
6209;SDS011;3138;52.550;13.148;2023-06-22T05:20:34;16.30;;;11.40;;
6209;SDS011;3138;52.550;13.148;2023-06-22T05:23:01;19.77;;;10.60;;
6209;SDS011;3138;52.550;13.148;2023-06-22T05:25:28;12.50;;;10.60;;
6209;SDS011;3138;52.550;13.148;2023-06-22T05:27:58;14.53;;;10.67;;
6209;SDS011;3138;52.550;13.148;2023-06-22T05:30:25;14.33;;;10.70;;
6209;SDS011;3138;52.550;13.148;2023-06-22T05:32:53;14.30;;;9.60;;
6209;SDS011;3138;52.550;13.148;2023-06-22T05:35:20;20.67;;;9.80;;
6209;SDS011;3138;52.550;13.148;2023-06-22T05:37:47;13.10;;;10.73;;
6209;SDS011;3138;52.550;13.148;2023-06-22T05:40:14;17.87;;;11.20;;
6209;SDS011;3138;52.550;13.148;2023-06-22T05:42:41;14.17;;;10.50;;
6209;SDS011;3138;52.550;13.148;2023-06-22T05:45:09;27.03;;;10.00;;
6209;SDS011;3138;52.550;13.148;2023-06-22T05:47:36;14.63;;;10.43;;
6209;SDS011;3138;52.550;13.148;2023-06-22T05:50:03;17.60;;;10.47;;
6209;SDS011;3138;52.550;13.148;2023-06-22T05:52:33;16.93;;;10.40;;
6209;SDS011;3138;52.550;13.148;2023-06-22T05:55:01;21.47;;;10.20;;
6209;SDS011;3138;52.550;13.148;2023-06-22T05:57:28;12.40;;;8.77;;
6209;SDS011;3138;52.550;13.148;2023-06-22T05:59:55;15.17;;;10.77;;
6209;SDS011;3138;52.550;13.148;2023-06-22T06:02:23;18.40;;;10.63;;
6209;SDS011;3138;52.550;13.148;2023-06-22T06:04:50;17.97;;;11.20;;
6209;SDS011;3138;52.550;13.148;2023-06-22T06:07:17;12.67;;;9.60;;
6209;SDS011;3138;52.550;13.148;2023-06-22T06:09:44;18.07;;;10.03;;
6209;SDS011;3138;52.550;13.148;2023-06-22T06:12:11;38.77;;;9.43;;
6209;SDS011;3138;52.550;13.148;2023-06-22T06:14:38;25.80;;;9.37;;
6209;SDS011;3138;52.550;13.148;2023-06-22T06:17:05;20.27;;;8.67;;
6209;SDS011;3138;52.550;13.148;2023-06-22T06:19:33;21.27;;;8.87;;
6209;SDS011;3138;52.550;13.148;2023-06-22T06:22:00;15.50;;;7.93;;
6209;SDS011;3138;52.550;13.148;2023-06-22T06:24:27;12.80;;;7.13;;
6209;SDS011;3138;52.550;13.148;2023-06-22T06:26:53;15.13;;;7.33;;
6209;SDS011;3138;52.550;13.148;2023-06-22T06:29:20;12.57;;;7.20;;
6209;SDS011;3138;52.550;13.148;2023-06-22T06:31:48;21.03;;;6.03;;
6209;SDS011;3138;52.550;13.148;2023-06-22T06:34:15;24.47;;;6.20;;
6209;SDS011;3138;52.550;13.148;2023-06-22T06:36:43;17.30;;;5.40;;
6209;SDS011;3138;52.550;13.148;2023-06-22T06:39:10;8.20;;;5.10;;
6209;SDS011;3138;52.550;13.148;2023-06-22T06:41:37;13.73;;;5.43;;
6209;SDS011;3138;52.550;13.148;2023-06-22T06:44:04;7.50;;;4.00;;
6209;SDS011;3138;52.550;13.148;2023-06-22T06:46:31;11.90;;;4.57;;
6209;SDS011;3138;52.550;13.148;2023-06-22T06:48:57;9.03;;;4.03;;
6209;SDS011;3138;52.550;13.148;2023-06-22T06:51:24;11.73;;;5.00;;
6209;SDS011;3138;52.550;13.148;2023-06-22T06:53:53;9.20;;;5.07;;
6209;SDS011;3138;52.550;13.148;2023-06-22T06:56:19;7.20;;;4.60;;
6209;SDS011;3138;52.550;13.148;2023-06-22T06:58:46;10.70;;;4.07;;
6209;SDS011;3138;52.550;13.148;2023-06-22T07:01:15;7.17;;;4.50;;
6209;SDS011;3138;52.550;13.148;2023-06-22T07:03:42;6.23;;;4.30;;
6209;SDS011;3138;52.550;13.148;2023-06-22T07:06:09;6.50;;;4.00;;
6209;SDS011;3138;52.550;13.148;2023-06-22T07:08:36;9.10;;;4.23;;
6209;SDS011;3138;52.550;13.148;2023-06-22T07:11:06;4.97;;;3.60;;
6209;SDS011;3138;52.550;13.148;2023-06-22T07:13:33;6.90;;;4.50;;
6209;SDS011;3138;52.550;13.148;2023-06-22T07:15:59;3.87;;;3.47;;
6209;SDS011;3138;52.550;13.148;2023-06-22T07:18:26;6.17;;;4.27;;
6209;SDS011;3138;52.550;13.148;2023-06-22T07:20:53;7.57;;;4.90;;
6209;SDS011;3138;52.550;13.148;2023-06-22T07:23:20;12.30;;;4.00;;
6209;SDS011;3138;52.550;13.148;2023-06-22T07:25:47;6.60;;;4.37;;
6209;SDS011;3138;52.550;13.148;2023-06-22T07:28:15;10.33;;;4.97;;
6209;SDS011;3138;52.550;13.148;2023-06-22T07:30:42;9.07;;;4.27;;
6209;SDS011;3138;52.550;13.148;2023-06-22T07:33:09;5.13;;;3.90;;
6209;SDS011;3138;52.550;13.148;2023-06-22T07:35:36;6.63;;;4.43;;
6209;SDS011;3138;52.550;13.148;2023-06-22T07:38:03;9.17;;;4.50;;
6209;SDS011;3138;52.550;13.148;2023-06-22T07:40:30;8.93;;;5.13;;
6209;SDS011;3138;52.550;13.148;2023-06-22T07:42:57;7.47;;;4.03;;
6209;SDS011;3138;52.550;13.148;2023-06-22T07:45:25;9.13;;;4.13;;
6209;SDS011;3138;52.550;13.148;2023-06-22T07:47:52;11.70;;;4.00;;
6209;SDS011;3138;52.550;13.148;2023-06-22T07:50:19;6.70;;;3.83;;
6209;SDS011;3138;52.550;13.148;2023-06-22T07:52:45;4.73;;;4.10;;
6209;SDS011;3138;52.550;13.148;2023-06-22T07:55:13;6.97;;;4.30;;
6209;SDS011;3138;52.550;13.148;2023-06-22T07:57:40;3.53;;;3.23;;
6209;SDS011;3138;52.550;13.148;2023-06-22T08:00:07;14.13;;;5.40;;
6209;SDS011;3138;52.550;13.148;2023-06-22T08:02:40;9.30;;;4.23;;
6209;SDS011;3138;52.550;13.148;2023-06-22T08:05:07;5.20;;;3.97;;
6209;SDS011;3138;52.550;13.148;2023-06-22T08:07:36;7.73;;;3.57;;
6209;SDS011;3138;52.550;13.148;2023-06-22T08:10:03;19.67;;;3.93;;
6209;SDS011;3138;52.550;13.148;2023-06-22T08:12:30;5.73;;;3.87;;
6209;SDS011;3138;52.550;13.148;2023-06-22T08:14:57;8.80;;;3.53;;
6209;SDS011;3138;52.550;13.148;2023-06-22T08:17:24;5.70;;;3.53;;
6209;SDS011;3138;52.550;13.148;2023-06-22T08:19:53;5.80;;;3.37;;
6209;SDS011;3138;52.550;13.148;2023-06-22T08:22:20;6.97;;;3.50;;
6209;SDS011;3138;52.550;13.148;2023-06-22T08:24:47;8.50;;;4.10;;
6209;SDS011;3138;52.550;13.148;2023-06-22T08:27:14;9.90;;;4.10;;
6209;SDS011;3138;52.550;13.148;2023-06-22T08:29:43;9.53;;;4.07;;
6209;SDS011;3138;52.550;13.148;2023-06-22T08:32:10;3.17;;;2.70;;
6209;SDS011;3138;52.550;13.148;2023-06-22T08:34:37;5.13;;;3.57;;
6209;SDS011;3138;52.550;13.148;2023-06-22T08:37:08;13.40;;;3.80;;
6209;SDS011;3138;52.550;13.148;2023-06-22T08:39:35;7.50;;;3.70;;
6209;SDS011;3138;52.550;13.148;2023-06-22T08:42:02;10.83;;;4.17;;
6209;SDS011;3138;52.550;13.148;2023-06-22T08:44:29;5.90;;;3.00;;
6209;SDS011;3138;52.550;13.148;2023-06-22T08:46:55;6.33;;;3.77;;
6209;SDS011;3138;52.550;13.148;2023-06-22T08:49:22;7.17;;;4.13;;
6209;SDS011;3138;52.550;13.148;2023-06-22T08:51:49;5.50;;;3.53;;
6209;SDS011;3138;52.550;13.148;2023-06-22T08:54:19;3.80;;;3.50;;
6209;SDS011;3138;52.550;13.148;2023-06-22T08:56:46;9.50;;;4.00;;
6209;SDS011;3138;52.550;13.148;2023-06-22T08:59:13;7.47;;;4.10;;
6209;SDS011;3138;52.550;13.148;2023-06-22T09:01:40;18.40;;;4.50;;
6209;SDS011;3138;52.550;13.148;2023-06-22T09:04:10;6.97;;;3.17;;
6209;SDS011;3138;52.550;13.148;2023-06-22T09:06:37;8.33;;;4.07;;
6209;SDS011;3138;52.550;13.148;2023-06-22T09:09:10;6.67;;;3.60;;
6209;SDS011;3138;52.550;13.148;2023-06-22T09:11:38;6.63;;;3.67;;
6209;SDS011;3138;52.550;13.148;2023-06-22T09:14:05;7.27;;;3.40;;
6209;SDS011;3138;52.550;13.148;2023-06-22T09:16:32;6.27;;;3.40;;
6209;SDS011;3138;52.550;13.148;2023-06-22T09:19:00;3.93;;;3.27;;
6209;SDS011;3138;52.550;13.148;2023-06-22T09:24:49;8.73;;;3.30;;
6209;SDS011;3138;52.550;13.148;2023-06-22T09:27:17;4.07;;;3.30;;
6209;SDS011;3138;52.550;13.148;2023-06-22T09:29:44;6.20;;;3.43;;
6209;SDS011;3138;52.550;13.148;2023-06-22T09:32:11;5.70;;;3.47;;
6209;SDS011;3138;52.550;13.148;2023-06-22T09:34:38;4.50;;;3.70;;
6209;SDS011;3138;52.550;13.148;2023-06-22T09:37:05;4.23;;;3.80;;
6209;SDS011;3138;52.550;13.148;2023-06-22T09:39:32;7.73;;;3.27;;
6209;SDS011;3138;52.550;13.148;2023-06-22T09:41:59;11.10;;;3.40;;
6209;SDS011;3138;52.550;13.148;2023-06-22T09:44:27;13.93;;;4.07;;
6209;SDS011;3138;52.550;13.148;2023-06-22T09:46:54;4.00;;;3.70;;
6209;SDS011;3138;52.550;13.148;2023-06-22T09:49:21;7.63;;;4.00;;
6209;SDS011;3138;52.550;13.148;2023-06-22T09:51:48;7.00;;;4.33;;
6209;SDS011;3138;52.550;13.148;2023-06-22T09:54:16;8.67;;;4.87;;
6209;SDS011;3138;52.550;13.148;2023-06-22T09:56:42;4.97;;;4.17;;
6209;SDS011;3138;52.550;13.148;2023-06-22T09:59:09;7.93;;;4.63;;
6209;SDS011;3138;52.550;13.148;2023-06-22T10:01:38;7.93;;;4.40;;
6209;SDS011;3138;52.550;13.148;2023-06-22T10:04:05;4.33;;;3.93;;
6209;SDS011;3138;52.550;13.148;2023-06-22T10:06:31;8.87;;;5.00;;
6209;SDS011;3138;52.550;13.148;2023-06-22T10:08:58;5.67;;;4.83;;
6209;SDS011;3138;52.550;13.148;2023-06-22T10:11:25;8.30;;;4.90;;
6209;SDS011;3138;52.550;13.148;2023-06-22T10:13:55;6.57;;;4.80;;
6209;SDS011;3138;52.550;13.148;2023-06-22T10:16:23;5.00;;;4.47;;
6209;SDS011;3138;52.550;13.148;2023-06-22T10:18:53;13.53;;;5.10;;
6209;SDS011;3138;52.550;13.148;2023-06-22T10:21:19;6.00;;;4.60;;
6209;SDS011;3138;52.550;13.148;2023-06-22T10:23:46;8.30;;;4.90;;
6209;SDS011;3138;52.550;13.148;2023-06-22T10:26:13;10.43;;;5.20;;
6209;SDS011;3138;52.550;13.148;2023-06-22T10:28:40;8.03;;;5.10;;
6209;SDS011;3138;52.550;13.148;2023-06-22T10:31:07;4.70;;;4.23;;
6209;SDS011;3138;52.550;13.148;2023-06-22T10:33:34;6.33;;;5.10;;
6209;SDS011;3138;52.550;13.148;2023-06-22T10:36:02;6.30;;;5.10;;
6209;SDS011;3138;52.550;13.148;2023-06-22T10:38:29;5.27;;;4.77;;
6209;SDS011;3138;52.550;13.148;2023-06-22T10:40:56;9.40;;;4.67;;
6209;SDS011;3138;52.550;13.148;2023-06-22T10:43:23;7.23;;;5.57;;
6209;SDS011;3138;52.550;13.148;2023-06-22T10:45:50;16.30;;;5.00;;
6209;SDS011;3138;52.550;13.148;2023-06-22T10:48:17;9.97;;;4.20;;
6209;SDS011;3138;52.550;13.148;2023-06-22T10:50:43;10.00;;;5.03;;
6209;SDS011;3138;52.550;13.148;2023-06-22T10:53:12;6.43;;;4.53;;
6209;SDS011;3138;52.550;13.148;2023-06-22T10:55:38;6.57;;;5.00;;
6209;SDS011;3138;52.550;13.148;2023-06-22T10:58:05;4.30;;;4.00;;
6209;SDS011;3138;52.550;13.148;2023-06-22T11:00:32;6.47;;;3.93;;
6209;SDS011;3138;52.550;13.148;2023-06-22T11:02:59;5.00;;;4.50;;
6209;SDS011;3138;52.550;13.148;2023-06-22T11:05:26;5.17;;;4.70;;
6209;SDS011;3138;52.550;13.148;2023-06-22T11:07:52;5.07;;;4.50;;
6209;SDS011;3138;52.550;13.148;2023-06-22T11:10:21;7.60;;;5.20;;
6209;SDS011;3138;52.550;13.148;2023-06-22T11:12:48;8.10;;;5.10;;
6209;SDS011;3138;52.550;13.148;2023-06-22T11:15:14;6.87;;;5.00;;
6209;SDS011;3138;52.550;13.148;2023-06-22T11:17:41;6.83;;;4.57;;
6209;SDS011;3138;52.550;13.148;2023-06-22T11:20:08;6.43;;;5.30;;
6209;SDS011;3138;52.550;13.148;2023-06-22T11:22:37;6.90;;;5.73;;
6209;SDS011;3138;52.550;13.148;2023-06-22T11:25:04;6.17;;;5.10;;
6209;SDS011;3138;52.550;13.148;2023-06-22T11:27:33;6.63;;;4.90;;
6209;SDS011;3138;52.550;13.148;2023-06-22T11:30:00;9.83;;;4.70;;
6209;SDS011;3138;52.550;13.148;2023-06-22T11:32:27;8.20;;;5.63;;
6209;SDS011;3138;52.550;13.148;2023-06-22T11:34:54;6.30;;;5.57;;
6209;SDS011;3138;52.550;13.148;2023-06-22T11:37:21;6.10;;;5.17;;
6209;SDS011;3138;52.550;13.148;2023-06-22T11:39:48;7.50;;;5.23;;
6209;SDS011;3138;52.550;13.148;2023-06-22T11:42:19;6.77;;;6.03;;
6209;SDS011;3138;52.550;13.148;2023-06-22T11:44:49;6.90;;;5.23;;
6209;SDS011;3138;52.550;13.148;2023-06-22T11:47:16;9.30;;;4.93;;
6209;SDS011;3138;52.550;13.148;2023-06-22T11:49:43;6.57;;;5.90;;
6209;SDS011;3138;52.550;13.148;2023-06-22T11:52:10;11.17;;;6.27;;
6209;SDS011;3138;52.550;13.148;2023-06-22T11:54:37;7.33;;;5.97;;
6209;SDS011;3138;52.550;13.148;2023-06-22T11:57:04;8.23;;;5.77;;
6209;SDS011;3138;52.550;13.148;2023-06-22T11:59:31;5.27;;;4.83;;
6209;SDS011;3138;52.550;13.148;2023-06-22T12:01:59;5.97;;;5.33;;
6209;SDS011;3138;52.550;13.148;2023-06-22T12:04:26;12.40;;;5.60;;
6209;SDS011;3138;52.550;13.148;2023-06-22T12:06:53;5.77;;;5.27;;
6209;SDS011;3138;52.550;13.148;2023-06-22T12:09:20;8.87;;;6.10;;
6209;SDS011;3138;52.550;13.148;2023-06-22T12:11:47;6.33;;;5.33;;
6209;SDS011;3138;52.550;13.148;2023-06-22T12:14:13;7.13;;;4.73;;
6209;SDS011;3138;52.550;13.148;2023-06-22T12:16:40;5.33;;;4.97;;
6209;SDS011;3138;52.550;13.148;2023-06-22T12:19:10;5.33;;;4.83;;
6209;SDS011;3138;52.550;13.148;2023-06-22T12:21:37;6.93;;;6.07;;
6209;SDS011;3138;52.550;13.148;2023-06-22T12:24:04;5.50;;;5.00;;
6209;SDS011;3138;52.550;13.148;2023-06-22T12:26:31;6.20;;;5.03;;
6209;SDS011;3138;52.550;13.148;2023-06-22T12:28:58;6.00;;;5.10;;
6209;SDS011;3138;52.550;13.148;2023-06-22T12:31:24;5.77;;;5.10;;
6209;SDS011;3138;52.550;13.148;2023-06-22T12:33:51;10.20;;;6.10;;
6209;SDS011;3138;52.550;13.148;2023-06-22T12:36:19;6.63;;;5.97;;
6209;SDS011;3138;52.550;13.148;2023-06-22T12:38:46;7.03;;;5.93;;
6209;SDS011;3138;52.550;13.148;2023-06-22T12:41:13;6.63;;;4.93;;
6209;SDS011;3138;52.550;13.148;2023-06-22T12:43:40;13.90;;;5.40;;
6209;SDS011;3138;52.550;13.148;2023-06-22T12:46:07;8.23;;;5.17;;
6209;SDS011;3138;52.550;13.148;2023-06-22T12:48:33;7.47;;;5.70;;
6209;SDS011;3138;52.550;13.148;2023-06-22T12:51:06;6.70;;;6.00;;
6209;SDS011;3138;52.550;13.148;2023-06-22T12:53:34;6.10;;;5.50;;
6209;SDS011;3138;52.550;13.148;2023-06-22T12:56:01;7.80;;;5.00;;
6209;SDS011;3138;52.550;13.148;2023-06-22T12:58:29;7.67;;;4.73;;
6209;SDS011;3138;52.550;13.148;2023-06-22T13:00:55;23.37;;;5.50;;
6209;SDS011;3138;52.550;13.148;2023-06-22T13:03:23;6.53;;;5.13;;
6209;SDS011;3138;52.550;13.148;2023-06-22T13:05:52;8.60;;;4.30;;
6209;SDS011;3138;52.550;13.148;2023-06-22T13:08:19;5.13;;;4.63;;
6209;SDS011;3138;52.550;13.148;2023-06-22T13:10:47;6.20;;;5.60;;
6209;SDS011;3138;52.550;13.148;2023-06-22T13:13:14;8.17;;;6.23;;
6209;SDS011;3138;52.550;13.148;2023-06-22T13:15:41;9.20;;;5.33;;
6209;SDS011;3138;52.550;13.148;2023-06-22T13:18:08;13.57;;;4.73;;
6209;SDS011;3138;52.550;13.148;2023-06-22T13:20:35;10.67;;;5.83;;
6209;SDS011;3138;52.550;13.148;2023-06-22T13:23:02;10.10;;;5.30;;
6209;SDS011;3138;52.550;13.148;2023-06-22T13:25:28;7.23;;;4.40;;
6209;SDS011;3138;52.550;13.148;2023-06-22T13:27:57;6.93;;;4.73;;
6209;SDS011;3138;52.550;13.148;2023-06-22T13:30:23;9.53;;;6.13;;
6209;SDS011;3138;52.550;13.148;2023-06-22T13:32:50;5.67;;;5.17;;
6209;SDS011;3138;52.550;13.148;2023-06-22T13:35:17;4.30;;;4.00;;
6209;SDS011;3138;52.550;13.148;2023-06-22T13:37:44;5.73;;;4.73;;
6209;SDS011;3138;52.550;13.148;2023-06-22T13:40:11;7.83;;;5.47;;
6209;SDS011;3138;52.550;13.148;2023-06-22T13:42:38;6.90;;;5.37;;
6209;SDS011;3138;52.550;13.148;2023-06-22T13:45:07;5.60;;;4.70;;
6209;SDS011;3138;52.550;13.148;2023-06-22T13:47:34;5.70;;;4.53;;
6209;SDS011;3138;52.550;13.148;2023-06-22T13:50:01;8.87;;;5.47;;
6209;SDS011;3138;52.550;13.148;2023-06-22T13:52:28;7.50;;;5.67;;
6209;SDS011;3138;52.550;13.148;2023-06-22T13:54:55;7.40;;;5.60;;
6209;SDS011;3138;52.550;13.148;2023-06-22T13:57:22;5.53;;;5.00;;
6209;SDS011;3138;52.550;13.148;2023-06-22T13:59:48;6.20;;;5.60;;
6209;SDS011;3138;52.550;13.148;2023-06-22T14:02:17;7.63;;;5.30;;
6209;SDS011;3138;52.550;13.148;2023-06-22T14:04:43;9.90;;;5.00;;
6209;SDS011;3138;52.550;13.148;2023-06-22T14:07:10;11.17;;;5.13;;
6209;SDS011;3138;52.550;13.148;2023-06-22T14:09:37;7.10;;;5.47;;
6209;SDS011;3138;52.550;13.148;2023-06-22T14:12:04;7.07;;;5.80;;
6209;SDS011;3138;52.550;13.148;2023-06-22T14:14:32;5.93;;;5.43;;
6209;SDS011;3138;52.550;13.148;2023-06-22T14:16:59;8.03;;;5.70;;
6209;SDS011;3138;52.550;13.148;2023-06-22T14:19:27;5.73;;;5.17;;
6209;SDS011;3138;52.550;13.148;2023-06-22T14:21:54;6.20;;;5.50;;
6209;SDS011;3138;52.550;13.148;2023-06-22T14:24:21;12.17;;;5.47;;
6209;SDS011;3138;52.550;13.148;2023-06-22T14:26:48;15.53;;;5.60;;
6209;SDS011;3138;52.550;13.148;2023-06-22T14:29:15;8.50;;;5.40;;
6209;SDS011;3138;52.550;13.148;2023-06-22T14:31:44;7.10;;;5.70;;
6209;SDS011;3138;52.550;13.148;2023-06-22T14:34:12;6.20;;;5.70;;
6209;SDS011;3138;52.550;13.148;2023-06-22T14:36:40;5.97;;;5.37;;
6209;SDS011;3138;52.550;13.148;2023-06-22T14:39:08;4.67;;;4.37;;
6209;SDS011;3138;52.550;13.148;2023-06-22T14:41:35;7.23;;;5.97;;
6209;SDS011;3138;52.550;13.148;2023-06-22T14:44:02;5.93;;;5.33;;
6209;SDS011;3138;52.550;13.148;2023-06-22T14:46:29;10.53;;;6.70;;
6209;SDS011;3138;52.550;13.148;2023-06-22T14:48:55;13.67;;;6.20;;
6209;SDS011;3138;52.550;13.148;2023-06-22T14:51:22;9.20;;;5.50;;
6209;SDS011;3138;52.550;13.148;2023-06-22T14:53:50;6.23;;;5.20;;